sensor_id;sensor_type;location;lat;lon;timestamp;pressure;altitude;pressure_sealevel;temperature;humidity
50684;BME280;36654;45.042;38.994;2023-03-16T00:02:06;100241.94;;;8.51;66.24
50684;BME280;36654;45.042;38.994;2023-03-16T00:04:32;100230.44;;;8.51;66.28
50684;BME280;36654;45.042;38.994;2023-03-16T00:07:08;100236.59;;;8.48;66.26
50684;BME280;36654;45.042;38.994;2023-03-16T00:09:35;100227.78;;;8.48;66.33
50684;BME280;36654;45.042;38.994;2023-03-16T00:12:05;100241.88;;;8.47;66.27
50684;BME280;36654;45.042;38.994;2023-03-16T00:14:31;100224.16;;;8.39;66.50
50684;BME280;36654;45.042;38.994;2023-03-16T00:17:00;100218.03;;;8.43;66.43
50684;BME280;36654;45.042;38.994;2023-03-16T00:19:26;100219.81;;;8.41;66.66
50684;BME280;36654;45.042;38.994;2023-03-16T00:21:51;100202.91;;;8.33;66.91
50684;BME280;36654;45.042;38.994;2023-03-16T00:24:18;100210.81;;;8.30;67.00
50684;BME280;36654;45.042;38.994;2023-03-16T00:26:45;100216.09;;;8.30;66.99
50684;BME280;36654;45.042;38.994;2023-03-16T00:29:11;100172.81;;;8.17;67.24
50684;BME280;36654;45.042;38.994;2023-03-16T00:31:38;100205.47;;;8.24;67.33
50684;BME280;36654;45.042;38.994;2023-03-16T00:34:04;100216.91;;;8.25;67.51
50684;BME280;36654;45.042;38.994;2023-03-16T00:36:30;100204.56;;;8.24;67.60
50684;BME280;36654;45.042;38.994;2023-03-16T00:38:58;100192.16;;;8.15;67.48
50684;BME280;36654;45.042;38.994;2023-03-16T00:41:23;100216.03;;;8.24;67.64
50684;BME280;36654;45.042;38.994;2023-03-16T00:43:50;100210.69;;;8.21;67.53
50684;BME280;36654;45.042;38.994;2023-03-16T00:46:17;100203.59;;;8.14;67.53
50684;BME280;36654;45.042;38.994;2023-03-16T00:48:44;100226.59;;;8.24;67.64
50684;BME280;36654;45.042;38.994;2023-03-16T00:51:13;100209.84;;;8.22;67.84
50684;BME280;36654;45.042;38.994;2023-03-16T00:53:42;100215.97;;;8.21;67.65
50684;BME280;36654;45.042;38.994;2023-03-16T00:56:08;100193.03;;;8.14;67.90
50684;BME280;36654;45.042;38.994;2023-03-16T00:58:36;100199.19;;;8.14;67.78
50684;BME280;36654;45.042;38.994;2023-03-16T01:01:08;100205.38;;;8.18;67.82
50684;BME280;36654;45.042;38.994;2023-03-16T01:03:34;100198.34;;;8.17;68.20
50684;BME280;36654;45.042;38.994;2023-03-16T01:06:05;100192.13;;;8.13;68.28
50684;BME280;36654;45.042;38.994;2023-03-16T01:08:31;100205.31;;;8.12;68.41
50684;BME280;36654;45.042;38.994;2023-03-16T01:11:02;100201.63;;;8.00;68.36
50684;BME280;36654;45.042;38.994;2023-03-16T01:13:28;100211.34;;;8.03;68.62
50684;BME280;36654;45.042;38.994;2023-03-16T01:15:53;100221.91;;;8.03;68.65
50684;BME280;36654;45.042;38.994;2023-03-16T01:18:19;100228.13;;;8.07;68.86
50684;BME280;36654;45.042;38.994;2023-03-16T01:20:44;100237.72;;;8.00;69.09
50684;BME280;36654;45.042;38.994;2023-03-16T01:23:16;100235.91;;;7.97;69.23
50684;BME280;36654;45.042;38.994;2023-03-16T01:25:42;100240.28;;;7.95;69.41
50684;BME280;36654;45.042;38.994;2023-03-16T01:28:08;100256.09;;;7.92;69.64
50684;BME280;36654;45.042;38.994;2023-03-16T01:30:33;100249.81;;;7.86;69.97
50684;BME280;36654;45.042;38.994;2023-03-16T01:33:00;100260.31;;;7.81;69.97
50684;BME280;36654;45.042;38.994;2023-03-16T01:35:25;100248.78;;;7.76;70.25
50684;BME280;36654;45.042;38.994;2023-03-16T01:37:51;100253.13;;;7.71;70.43
50684;BME280;36654;45.042;38.994;2023-03-16T01:40:17;100255.00;;;7.76;70.63
50684;BME280;36654;45.042;38.994;2023-03-16T01:42:59;100269.03;;;7.75;70.68
50684;BME280;36654;45.042;38.994;2023-03-16T01:48:19;100254.00;;;7.70;70.98
50684;BME280;36654;45.042;38.994;2023-03-16T01:50:46;100254.03;;;7.73;70.67
50684;BME280;36654;45.042;38.994;2023-03-16T01:53:12;100255.88;;;7.77;70.99
50684;BME280;36654;45.042;38.994;2023-03-16T01:55:38;100261.09;;;7.75;71.01
50684;BME280;36654;45.042;38.994;2023-03-16T01:58:04;100243.47;;;7.73;70.97
50684;BME280;36654;45.042;38.994;2023-03-16T02:00:30;100266.44;;;7.78;70.97
50684;BME280;36654;45.042;38.994;2023-03-16T02:03:03;100255.88;;;7.77;70.96
50684;BME280;36654;45.042;38.994;2023-03-16T02:05:36;100241.75;;;7.75;71.10
50684;BME280;36654;45.042;38.994;2023-03-16T02:08:04;100257.75;;;7.86;70.88
50684;BME280;36654;45.042;38.994;2023-03-16T02:10:31;100263.91;;;7.85;70.95
50684;BME280;36654;45.042;38.994;2023-03-16T02:12:58;100265.63;;;7.83;70.88
50684;BME280;36654;45.042;38.994;2023-03-16T02:15:24;100259.47;;;7.82;70.71
50684;BME280;36654;45.042;38.994;2023-03-16T02:17:50;100264.72;;;7.82;70.89
50684;BME280;36654;45.042;38.994;2023-03-16T02:23:01;100255.81;;;7.74;70.81
50684;BME280;36654;45.042;38.994;2023-03-16T02:25:35;100250.59;;;7.77;70.84
50684;BME280;36654;45.042;38.994;2023-03-16T02:28:09;100252.34;;;7.78;70.80
50684;BME280;36654;45.042;38.994;2023-03-16T02:30:39;100249.63;;;7.73;70.95
50684;BME280;36654;45.042;38.994;2023-03-16T02:33:06;100245.19;;;7.71;71.12
50684;BME280;36654;45.042;38.994;2023-03-16T02:35:32;100247.06;;;7.78;71.10
50684;BME280;36654;45.042;38.994;2023-03-16T02:37:58;100256.75;;;7.77;71.12
50684;BME280;36654;45.042;38.994;2023-03-16T02:40:29;100253.16;;;7.72;71.18
50684;BME280;36654;45.042;38.994;2023-03-16T02:43:01;100260.19;;;7.73;71.04
50684;BME280;36654;45.042;38.994;2023-03-16T02:45:31;100252.28;;;7.72;71.12
50684;BME280;36654;45.042;38.994;2023-03-16T02:48:01;100252.16;;;7.66;71.04
50684;BME280;36654;45.042;38.994;2023-03-16T02:50:29;100271.53;;;7.68;71.38
50684;BME280;36654;45.042;38.994;2023-03-16T02:52:55;100259.13;;;7.61;71.27
50684;BME280;36654;45.042;38.994;2023-03-16T02:55:21;100252.03;;;7.58;71.39
50684;BME280;36654;45.042;38.994;2023-03-16T02:57:47;100253.81;;;7.57;71.50
50684;BME280;36654;45.042;38.994;2023-03-16T03:00:13;100255.56;;;7.59;71.63
50684;BME280;36654;45.042;38.994;2023-03-16T03:02:45;100246.66;;;7.50;71.76
50684;BME280;36654;45.042;38.994;2023-03-16T03:05:11;100201.44;;;7.26;71.83
50684;BME280;36654;45.042;38.994;2023-03-16T03:07:37;100236.03;;;7.44;72.01
50684;BME280;36654;45.042;38.994;2023-03-16T03:10:04;100242.22;;;7.46;72.09
50684;BME280;36654;45.042;38.994;2023-03-16T03:12:33;100240.41;;;7.45;72.05
50684;BME280;36654;45.042;38.994;2023-03-16T03:14:59;100255.38;;;7.45;72.52
50684;BME280;36654;45.042;38.994;2023-03-16T03:17:25;100259.72;;;7.43;72.42
50684;BME280;36654;45.042;38.994;2023-03-16T03:19:57;100260.56;;;7.40;72.53
50684;BME280;36654;45.042;38.994;2023-03-16T03:22:23;100269.34;;;7.39;72.62
50684;BME280;36654;45.042;38.994;2023-03-16T03:24:51;100278.97;;;7.39;72.63
50684;BME280;36654;45.042;38.994;2023-03-16T03:27:17;100268.38;;;7.35;72.77
50684;BME280;36654;45.042;38.994;2023-03-16T03:29:43;100263.88;;;7.27;72.97
50684;BME280;36654;45.042;38.994;2023-03-16T03:32:09;100262.16;;;7.29;73.07
50684;BME280;36654;45.042;38.994;2023-03-16T03:34:36;100282.31;;;7.27;73.21
50684;BME280;36654;45.042;38.994;2023-03-16T03:37:02;100260.34;;;7.28;73.59
50684;BME280;36654;45.042;38.994;2023-03-16T03:39:28;100255.06;;;7.28;73.41
50684;BME280;36654;45.042;38.994;2023-03-16T03:41:53;100260.41;;;7.31;73.24
50684;BME280;36654;45.042;38.994;2023-03-16T03:44:23;100256.91;;;7.32;73.43
50684;BME280;36654;45.042;38.994;2023-03-16T03:46:49;100251.59;;;7.29;73.29
50684;BME280;36654;45.042;38.994;2023-03-16T03:49:16;100209.84;;;7.03;73.42
50684;BME280;36654;45.042;38.994;2023-03-16T03:51:42;100269.34;;;7.39;73.28
50684;BME280;36654;45.042;38.994;2023-03-16T03:54:09;100264.16;;;7.45;73.32
50684;BME280;36654;45.042;38.994;2023-03-16T03:56:34;100230.44;;;7.26;73.17
50684;BME280;36654;45.042;38.994;2023-03-16T03:59:00;100247.38;;;7.40;72.97
50684;BME280;36654;45.042;38.994;2023-03-16T04:01:25;100259.03;;;7.54;73.10
50684;BME280;36654;45.042;38.994;2023-03-16T04:03:51;100259.13;;;7.59;72.96
50684;BME280;36654;45.042;38.994;2023-03-16T04:06:17;100266.28;;;7.68;72.69
50684;BME280;36654;45.042;38.994;2023-03-16T04:08:42;100276.13;;;7.80;72.68
50684;BME280;36654;45.042;38.994;2023-03-16T04:11:08;100263.00;;;7.84;72.45
50684;BME280;36654;45.042;38.994;2023-03-16T04:13:34;100261.22;;;7.83;72.35
50684;BME280;36654;45.042;38.994;2023-03-16T04:16:00;100280.78;;;7.97;72.04
50684;BME280;36654;45.042;38.994;2023-03-16T04:18:30;100252.69;;;8.03;72.07
50684;BME280;36654;45.042;38.994;2023-03-16T04:21:06;100261.69;;;8.14;71.61
50684;BME280;36654;45.042;38.994;2023-03-16T04:23:33;100263.47;;;8.18;71.30
50684;BME280;36654;45.042;38.994;2023-03-16T04:25:59;100266.13;;;8.21;70.98
50684;BME280;36654;45.042;38.994;2023-03-16T04:28:25;100228.91;;;7.99;70.87
50684;BME280;36654;45.042;38.994;2023-03-16T04:30:53;100275.13;;;8.34;71.04
50684;BME280;36654;45.042;38.994;2023-03-16T04:33:20;100272.50;;;8.34;70.83
50684;BME280;36654;45.042;38.994;2023-03-16T04:35:46;100270.78;;;8.37;70.70
50684;BME280;36654;45.042;38.994;2023-03-16T04:38:12;100269.97;;;8.41;70.57
50684;BME280;36654;45.042;38.994;2023-03-16T04:40:39;100284.97;;;8.46;70.54
50684;BME280;36654;45.042;38.994;2023-03-16T04:43:04;100269.97;;;8.43;70.52
50684;BME280;36654;45.042;38.994;2023-03-16T04:45:30;100285.09;;;8.55;70.29
50684;BME280;36654;45.042;38.994;2023-03-16T04:47:57;100268.28;;;8.47;70.33
50684;BME280;36654;45.042;38.994;2023-03-16T04:50:22;100298.53;;;8.72;70.12
50684;BME280;36654;45.042;38.994;2023-03-16T04:52:48;100315.41;;;8.84;70.02
50684;BME280;36654;45.042;38.994;2023-03-16T04:55:13;100305.81;;;8.96;69.72
50684;BME280;36654;45.042;38.994;2023-03-16T04:57:39;100305.06;;;9.06;69.38
50684;BME280;36654;45.042;38.994;2023-03-16T05:00:05;100298.09;;;9.14;69.23
50684;BME280;36654;45.042;38.994;2023-03-16T05:02:43;100308.72;;;9.17;69.02
50684;BME280;36654;45.042;38.994;2023-03-16T05:05:09;100299.94;;;9.21;68.91
50684;BME280;36654;45.042;38.994;2023-03-16T05:07:35;100267.22;;;9.09;68.81
50684;BME280;36654;45.042;38.994;2023-03-16T05:10:00;100312.44;;;9.41;68.65
50684;BME280;36654;45.042;38.994;2023-03-16T05:12:26;100314.34;;;9.54;68.34
50684;BME280;36654;45.042;38.994;2023-03-16T05:14:55;100315.31;;;9.65;67.97
50684;BME280;36654;45.042;38.994;2023-03-16T05:17:21;100314.47;;;9.69;67.69
50684;BME280;36654;45.042;38.994;2023-03-16T05:19:49;100331.31;;;9.79;67.42
50684;BME280;36654;45.042;38.994;2023-03-16T05:22:15;100332.25;;;9.84;67.24
50684;BME280;36654;45.042;38.994;2023-03-16T05:24:41;100313.75;;;9.89;66.90
50684;BME280;36654;45.042;38.994;2023-03-16T05:27:06;100315.53;;;9.93;66.90
50684;BME280;36654;45.042;38.994;2023-03-16T05:29:32;100330.59;;;9.99;66.64
50684;BME280;36654;45.042;38.994;2023-03-16T05:31:59;100328.91;;;10.08;66.29
50684;BME280;36654;45.042;38.994;2023-03-16T05:34:25;100314.84;;;10.19;66.06
50684;BME280;36654;45.042;38.994;2023-03-16T05:36:51;100309.53;;;10.22;65.77
50684;BME280;36654;45.042;38.994;2023-03-16T05:39:17;100317.59;;;10.37;65.74
50684;BME280;36654;45.042;38.994;2023-03-16T05:41:43;100306.16;;;10.41;65.19
50684;BME280;36654;45.042;38.994;2023-03-16T05:44:09;100311.47;;;10.44;64.90
50684;BME280;36654;45.042;38.994;2023-03-16T05:46:35;100318.56;;;10.53;64.80
50684;BME280;36654;45.042;38.994;2023-03-16T05:49:01;100312.41;;;10.63;64.46
50684;BME280;36654;45.042;38.994;2023-03-16T05:51:27;100311.59;;;10.72;64.19
50684;BME280;36654;45.042;38.994;2023-03-16T05:53:53;100304.53;;;10.80;63.91
50684;BME280;36654;45.042;38.994;2023-03-16T05:56:26;100307.22;;;10.88;63.66
50684;BME280;36654;45.042;38.994;2023-03-16T05:58:53;100307.22;;;10.88;63.75
50684;BME280;36654;45.042;38.994;2023-03-16T06:01:19;100308.13;;;10.94;63.93
50684;BME280;36654;45.042;38.994;2023-03-16T06:03:46;100304.56;;;10.92;63.70
50684;BME280;36654;45.042;38.994;2023-03-16T06:06:14;100312.56;;;10.98;63.59
50684;BME280;36654;45.042;38.994;2023-03-16T06:08:41;100301.94;;;10.98;63.40
50684;BME280;36654;45.042;38.994;2023-03-16T06:11:07;100309.91;;;11.05;63.27
50684;BME280;36654;45.042;38.994;2023-03-16T06:13:33;100263.91;;;10.84;63.31
50684;BME280;36654;45.042;38.994;2023-03-16T06:15:58;100300.22;;;11.14;62.91
50684;BME280;36654;45.042;38.994;2023-03-16T06:18:24;100301.09;;;11.15;63.16
50684;BME280;36654;45.042;38.994;2023-03-16T06:20:50;100302.88;;;11.25;63.00
50684;BME280;36654;45.042;38.994;2023-03-16T06:23:15;100256.88;;;11.05;62.89
50684;BME280;36654;45.042;38.994;2023-03-16T06:25:45;100296.72;;;11.41;62.58
50684;BME280;36654;45.042;38.994;2023-03-16T06:28:11;100317.94;;;11.63;62.46
50684;BME280;36654;45.042;38.994;2023-03-16T06:30:37;100309.97;;;11.72;62.04
50684;BME280;36654;45.042;38.994;2023-03-16T06:33:02;100307.31;;;11.75;61.75
50684;BME280;36654;45.042;38.994;2023-03-16T06:35:28;100288.75;;;11.64;61.58
50684;BME280;36654;45.042;38.994;2023-03-16T06:37:53;100317.09;;;11.89;61.33
50684;BME280;36654;45.042;38.994;2023-03-16T06:40:19;100302.94;;;11.91;61.27
50684;BME280;36654;45.042;38.994;2023-03-16T06:42:45;100305.56;;;12.09;60.94
50684;BME280;36654;45.042;38.994;2023-03-16T06:45:10;100308.19;;;12.20;60.44
50684;BME280;36654;45.042;38.994;2023-03-16T06:47:36;100294.03;;;12.18;60.50
50684;BME280;36654;45.042;38.994;2023-03-16T06:50:02;100286.03;;;12.29;60.27
50684;BME280;36654;45.042;38.994;2023-03-16T06:52:29;100295.75;;;12.32;60.02
50684;BME280;36654;45.042;38.994;2023-03-16T06:54:54;100297.53;;;12.36;60.14
50684;BME280;36654;45.042;38.994;2023-03-16T06:57:20;100283.34;;;12.37;60.04
50684;BME280;36654;45.042;38.994;2023-03-16T06:59:45;100308.06;;;12.57;59.65
50684;BME280;36654;45.042;38.994;2023-03-16T07:02:12;100298.28;;;12.65;59.46
50684;BME280;36654;45.042;38.994;2023-03-16T07:04:39;100292.03;;;12.79;59.01
50684;BME280;36654;45.042;38.994;2023-03-16T07:07:05;100287.53;;;12.85;58.97
50684;BME280;36654;45.042;38.994;2023-03-16T07:09:31;100291.94;;;12.94;58.58
50684;BME280;36654;45.042;38.994;2023-03-16T07:11:57;100258.28;;;12.87;58.46
50684;BME280;36654;45.042;38.994;2023-03-16T07:14:22;100288.25;;;13.16;58.24
50684;BME280;36654;45.042;38.994;2023-03-16T07:16:50;100297.94;;;13.25;58.02
50684;BME280;36654;45.042;38.994;2023-03-16T07:19:17;100279.34;;;13.24;58.03
50684;BME280;36654;45.042;38.994;2023-03-16T07:21:43;100276.69;;;13.24;57.73
50684;BME280;36654;45.042;38.994;2023-03-16T07:24:10;100298.81;;;13.35;57.90
50684;BME280;36654;45.042;38.994;2023-03-16T07:26:37;100299.66;;;13.43;57.50
50684;BME280;36654;45.042;38.994;2023-03-16T07:29:03;100296.91;;;13.52;57.58
50684;BME280;36654;45.042;38.994;2023-03-16T07:31:30;100286.22;;;13.58;57.18
50684;BME280;36654;45.042;38.994;2023-03-16T07:33:57;100315.31;;;13.80;56.87
50684;BME280;36654;45.042;38.994;2023-03-16T07:36:23;100305.47;;;13.91;56.33
50684;BME280;36654;45.042;38.994;2023-03-16T07:38:48;100308.97;;;13.96;56.15
50684;BME280;36654;45.042;38.994;2023-03-16T07:41:16;100301.84;;;13.98;56.08
50684;BME280;36654;45.042;38.994;2023-03-16T07:43:41;100292.94;;;13.99;55.97
50684;BME280;36654;45.042;38.994;2023-03-16T07:46:09;100229.34;;;13.63;55.98
50684;BME280;36654;45.042;38.994;2023-03-16T07:48:42;100314.19;;;14.09;55.61
50684;BME280;36654;45.042;38.994;2023-03-16T07:51:10;100302.66;;;14.08;55.66
50684;BME280;36654;45.042;38.994;2023-03-16T07:53:37;100307.06;;;14.08;56.03
50684;BME280;36654;45.042;38.994;2023-03-16T07:56:03;100310.59;;;14.13;56.17
50684;BME280;36654;45.042;38.994;2023-03-16T07:58:29;100307.03;;;14.14;55.96
50684;BME280;36654;45.042;38.994;2023-03-16T08:00:56;100304.31;;;14.17;55.55
50684;BME280;36654;45.042;38.994;2023-03-16T08:03:23;100306.84;;;14.28;55.60
50684;BME280;36654;45.042;38.994;2023-03-16T08:05:49;100307.78;;;14.25;55.41
50684;BME280;36654;45.042;38.994;2023-03-16T08:08:16;100257.34;;;14.07;55.42
50684;BME280;36654;45.042;38.994;2023-03-16T08:10:41;100278.34;;;14.34;54.97
50684;BME280;36654;45.042;38.994;2023-03-16T08:13:07;100314.53;;;14.61;54.87
50684;BME280;36654;45.042;38.994;2023-03-16T08:15:33;100322.47;;;14.66;55.06
50684;BME280;36654;45.042;38.994;2023-03-16T08:18:00;100313.56;;;14.67;55.00
50684;BME280;36654;45.042;38.994;2023-03-16T08:20:29;100305.50;;;14.70;54.99
50684;BME280;36654;45.042;38.994;2023-03-16T08:22:55;100295.84;;;14.60;54.86
50684;BME280;36654;45.042;38.994;2023-03-16T08:25:21;100320.63;;;14.71;55.03
50684;BME280;36654;45.042;38.994;2023-03-16T08:27:46;100297.59;;;14.64;55.25
50684;BME280;36654;45.042;38.994;2023-03-16T08:30:14;100317.13;;;14.66;55.30
50684;BME280;36654;45.042;38.994;2023-03-16T08:32:40;100316.13;;;14.78;55.44
50684;BME280;36654;45.042;38.994;2023-03-16T08:35:09;100306.28;;;14.81;55.63
50684;BME280;36654;45.042;38.994;2023-03-16T08:37:34;100311.50;;;14.87;55.41
50684;BME280;36654;45.042;38.994;2023-03-16T08:40:00;100304.34;;;14.93;55.31
50684;BME280;36654;45.042;38.994;2023-03-16T08:42:26;100304.31;;;14.96;55.15
50684;BME280;36654;45.042;38.994;2023-03-16T08:44:54;100303.31;;;15.03;55.17
50684;BME280;36654;45.042;38.994;2023-03-16T08:47:23;100302.34;;;15.07;54.99
50684;BME280;36654;45.042;38.994;2023-03-16T08:49:49;100297.00;;;15.08;55.30
50684;BME280;36654;45.042;38.994;2023-03-16T08:52:15;100288.06;;;15.11;54.85
50684;BME280;36654;45.042;38.994;2023-03-16T08:54:41;100280.94;;;15.13;55.01
50684;BME280;36654;45.042;38.994;2023-03-16T08:57:08;100302.13;;;15.25;54.84
50684;BME280;36654;45.042;38.994;2023-03-16T08:59:35;100296.72;;;15.28;54.87
50684;BME280;36654;45.042;38.994;2023-03-16T09:02:01;100247.34;;;14.97;54.83
50684;BME280;36654;45.042;38.994;2023-03-16T09:04:28;100296.53;;;15.39;54.97
50684;BME280;36654;45.042;38.994;2023-03-16T09:06:54;100298.19;;;15.48;54.68
50684;BME280;36654;45.042;38.994;2023-03-16T09:09:20;100254.81;;;15.32;54.68
50684;BME280;36654;45.042;38.994;2023-03-16T09:11:46;100307.69;;;15.66;54.69
50684;BME280;36654;45.042;38.994;2023-03-16T09:14:14;100303.22;;;15.69;54.70
50684;BME280;36654;45.042;38.994;2023-03-16T09:16:39;100274.97;;;15.53;54.58
50684;BME280;36654;45.042;38.994;2023-03-16T09:19:05;100301.41;;;15.70;54.67
50684;BME280;36654;45.042;38.994;2023-03-16T09:21:32;100295.19;;;15.69;54.74
50684;BME280;36654;45.042;38.994;2023-03-16T09:24:00;100297.66;;;15.82;54.54
50684;BME280;36654;45.042;38.994;2023-03-16T09:26:26;100295.78;;;15.87;54.50
50684;BME280;36654;45.042;38.994;2023-03-16T09:28:53;100297.59;;;15.85;54.47
50684;BME280;36654;45.042;38.994;2023-03-16T09:31:19;100293.97;;;15.89;54.67
50684;BME280;36654;45.042;38.994;2023-03-16T09:33:45;100297.44;;;15.94;54.17
50684;BME280;36654;45.042;38.994;2023-03-16T09:36:11;100302.91;;;15.88;54.40
50684;BME280;36654;45.042;38.994;2023-03-16T09:38:38;100301.06;;;15.90;54.84
50684;BME280;36654;45.042;38.994;2023-03-16T09:44:29;100295.69;;;15.93;54.48
50684;BME280;36654;45.042;38.994;2023-03-16T09:47:00;100290.38;;;15.90;54.42
50684;BME280;36654;45.042;38.994;2023-03-16T09:49:34;100308.25;;;15.88;54.36
50684;BME280;36654;45.042;38.994;2023-03-16T09:54:52;100278.09;;;15.80;54.54
50684;BME280;36654;45.042;38.994;2023-03-16T09:57:40;100273.59;;;15.83;54.41
50684;BME280;36654;45.042;38.994;2023-03-16T10:05:25;100255.75;;;15.84;54.16
50684;BME280;36654;45.042;38.994;2023-03-16T10:16:34;100294.25;;;16.67;52.75
50684;BME280;36654;45.042;38.994;2023-03-16T10:19:07;100290.53;;;16.74;52.86
50684;BME280;36654;45.042;38.994;2023-03-16T10:21:38;100293.16;;;16.78;52.71
50684;BME280;36654;45.042;38.994;2023-03-16T10:24:15;100300.25;;;16.79;52.27
50684;BME280;36654;45.042;38.994;2023-03-16T10:26:48;100278.19;;;16.67;51.91
50684;BME280;36654;45.042;38.994;2023-03-16T10:29:15;100273.78;;;16.64;51.97
50684;BME280;36654;45.042;38.994;2023-03-16T10:31:41;100293.97;;;16.82;52.02
50684;BME280;36654;45.042;38.994;2023-03-16T10:34:07;100288.59;;;16.82;51.96
50684;BME280;36654;45.042;38.994;2023-03-16T10:36:37;100287.88;;;16.74;52.13
50684;BME280;36654;45.042;38.994;2023-03-16T10:39:11;100296.75;;;16.76;52.55
50684;BME280;36654;45.042;38.994;2023-03-16T10:41:44;100284.41;;;16.69;52.28
50684;BME280;36654;45.042;38.994;2023-03-16T10:44:13;100310.09;;;16.79;52.32
50684;BME280;36654;45.042;38.994;2023-03-16T10:46:45;100308.34;;;16.78;52.50
50684;BME280;36654;45.042;38.994;2023-03-16T10:51:45;100309.25;;;16.75;52.33
50684;BME280;36654;45.042;38.994;2023-03-16T10:54:15;100313.78;;;16.72;52.70
50684;BME280;36654;45.042;38.994;2023-03-16T10:56:44;100318.56;;;16.57;52.88
50684;BME280;36654;45.042;38.994;2023-03-16T10:59:30;100325.97;;;16.43;53.21
50684;BME280;36654;45.042;38.994;2023-03-16T11:01:57;100290.13;;;16.05;53.38
50684;BME280;36654;45.042;38.994;2023-03-16T11:04:23;100331.03;;;16.10;53.85
50684;BME280;36654;45.042;38.994;2023-03-16T11:06:55;100326.78;;;15.97;54.13
50684;BME280;36654;45.042;38.994;2023-03-16T11:09:32;100335.88;;;15.88;54.54
50684;BME280;36654;45.042;38.994;2023-03-16T11:11:58;100328.84;;;15.81;54.92
50684;BME280;36654;45.042;38.994;2023-03-16T11:14:27;100313.06;;;15.64;55.55
50684;BME280;36654;45.042;38.994;2023-03-16T11:16:59;100331.59;;;15.77;55.75
50684;BME280;36654;45.042;38.994;2023-03-16T11:19:30;100273.38;;;15.40;55.97
50684;BME280;36654;45.042;38.994;2023-03-16T11:22:14;100345.78;;;15.82;55.93
50684;BME280;36654;45.042;38.994;2023-03-16T11:27:22;100339.50;;;15.84;56.06
50684;BME280;36654;45.042;38.994;2023-03-16T11:30:07;100356.41;;;15.85;56.06
50684;BME280;36654;45.042;38.994;2023-03-16T11:32:39;100360.94;;;15.81;56.18
50684;BME280;36654;45.042;38.994;2023-03-16T11:35:17;100360.00;;;15.84;55.91
50684;BME280;36654;45.042;38.994;2023-03-16T11:40:54;100356.31;;;15.91;55.53
50684;BME280;36654;45.042;38.994;2023-03-16T12:09:00;100349.50;;;15.71;55.14
50684;BME280;36654;45.042;38.994;2023-03-16T12:11:29;100360.06;;;15.81;55.14
50684;BME280;36654;45.042;38.994;2023-03-16T12:14:17;100360.00;;;15.84;54.80
50684;BME280;36654;45.042;38.994;2023-03-16T12:17:08;100372.34;;;15.91;54.51
50684;BME280;36654;45.042;38.994;2023-03-16T12:19:41;100366.16;;;15.89;54.14
50684;BME280;36654;45.042;38.994;2023-03-16T12:25:03;100368.81;;;15.89;54.19
50684;BME280;36654;45.042;38.994;2023-03-16T12:27:38;100372.25;;;15.97;53.85
50684;BME280;36654;45.042;38.994;2023-03-16T12:33:19;100370.56;;;15.90;53.55
50684;BME280;36654;45.042;38.994;2023-03-16T12:41:21;100383.13;;;15.86;53.56
50684;BME280;36654;45.042;38.994;2023-03-16T12:49:10;100385.97;;;15.74;54.38
50684;BME280;36654;45.042;38.994;2023-03-16T12:51:38;100383.38;;;15.69;54.44
50684;BME280;36654;45.042;38.994;2023-03-16T12:54:04;100378.97;;;15.64;54.47
50684;BME280;36654;45.042;38.994;2023-03-16T12:56:34;100344.50;;;15.47;54.74
50684;BME280;36654;45.042;38.994;2023-03-16T12:59:04;100377.13;;;15.69;54.62
50684;BME280;36654;45.042;38.994;2023-03-16T13:01:41;100389.59;;;15.70;54.85
50684;BME280;36654;45.042;38.994;2023-03-16T13:04:12;100390.44;;;15.73;54.98
50684;BME280;36654;45.042;38.994;2023-03-16T13:06:42;100394.91;;;15.73;54.76
50684;BME280;36654;45.042;38.994;2023-03-16T13:09:10;100381.50;;;15.74;55.10
50684;BME280;36654;45.042;38.994;2023-03-16T13:11:49;100354.22;;;15.52;54.92
50684;BME280;36654;45.042;38.994;2023-03-16T13:14:39;100388.69;;;15.72;55.24
50684;BME280;36654;45.042;38.994;2023-03-16T13:19:41;100389.41;;;15.82;55.03
50684;BME280;36654;45.042;38.994;2023-03-16T13:27:48;100399.44;;;15.66;54.96
50684;BME280;36654;45.042;38.994;2023-03-16T13:30:32;100402.16;;;15.63;55.25
50684;BME280;36654;45.042;38.994;2023-03-16T13:35:45;100386.09;;;15.65;55.05
50684;BME280;36654;45.042;38.994;2023-03-16T13:38:19;100350.00;;;15.38;55.21
50684;BME280;36654;45.042;38.994;2023-03-16T13:40:51;100397.69;;;15.62;55.29
50684;BME280;36654;45.042;38.994;2023-03-16T13:43:23;100396.00;;;15.58;55.88
50684;BME280;36654;45.042;38.994;2023-03-16T13:45:49;100404.91;;;15.57;56.10
50684;BME280;36654;45.042;38.994;2023-03-16T13:48:16;100405.81;;;15.56;56.60
50684;BME280;36654;45.042;38.994;2023-03-16T13:50:42;100389.84;;;15.50;57.10
50684;BME280;36654;45.042;38.994;2023-03-16T13:53:20;100396.16;;;15.46;56.44
50684;BME280;36654;45.042;38.994;2023-03-16T13:55:47;100403.22;;;15.50;56.75
50684;BME280;36654;45.042;38.994;2023-03-16T13:58:22;100414.81;;;15.47;56.92
50684;BME280;36654;45.042;38.994;2023-03-16T14:00:54;100300.88;;;14.84;57.03
50684;BME280;36654;45.042;38.994;2023-03-16T14:03:21;100337.00;;;15.12;57.23
50684;BME280;36654;45.042;38.994;2023-03-16T14:05:47;100413.88;;;15.53;57.40
50684;BME280;36654;45.042;38.994;2023-03-16T14:08:21;100399.72;;;15.45;57.49
50684;BME280;36654;45.042;38.994;2023-03-16T14:10:49;100411.16;;;15.54;57.19
50684;BME280;36654;45.042;38.994;2023-03-16T14:13:31;100403.09;;;15.59;57.43
50684;BME280;36654;45.042;38.994;2023-03-16T14:16:16;100403.03;;;15.64;57.22
50684;BME280;36654;45.042;38.994;2023-03-16T14:18:43;100387.13;;;15.56;56.85